Time;durP1;ratioP1;P1;durP2;ratioP2;P2;SDS_P1;SDS_P2;PMS_P1;PMS_P2;Temp;Humidity;BMP_temperature;BMP_pressure;BME280_temperature;BME280_humidity;BME280_pressure;Samples;Min_cycle;Max_cycle;Signal;HPM_P1;HPM_P2
2020/12/08 00:00:24;;;;;;;41.73;29.43;;;5.20;99.90;;;5.39;81.71;100010.03;5075609;28;20078;-67
2020/12/08 00:02:51;;;;;;;44.87;30.60;;;5.30;99.90;;;5.10;82.40;100011.69;5075715;28;20382;-67
2020/12/08 00:05:20;;;;;;;43.37;28.67;;;5.00;99.90;;;2.68;82.74;99661.66;5075856;28;20127;-67
2020/12/08 00:07:48;;;;;;;42.70;28.87;;;4.80;99.90;;;4.70;83.68;100004.56;5074313;28;20044;-67
2020/12/08 00:10:19;;;;;;;43.43;29.87;;;4.70;99.90;;;4.81;83.73;100001.97;5074380;28;20041;-67
2020/12/08 00:12:47;;;;;;;40.92;29.30;;;4.60;99.90;;;4.71;83.75;100008.00;5075807;28;20402;-67
2020/12/08 00:15:16;;;;;;;47.07;30.50;;;4.60;99.90;;;4.24;84.70;99935.34;5075622;28;20074;-67
2020/12/08 00:17:46;;;;;;;42.10;28.50;;;4.50;99.90;;;4.65;84.16;100008.88;5075382;28;20040;-67
2020/12/08 00:20:14;;;;;;;;;;;4.50;99.90;;;4.58;84.26;100002.75;5075456;28;20058;-67
2020/12/08 00:22:42;;;;;;;38.87;27.70;;;4.50;99.90;;;4.66;84.43;100001.91;5075374;28;19924;-67
2020/12/08 00:25:11;;;;;;;41.03;26.93;;;4.50;99.90;;;4.68;84.15;100005.41;5075041;28;20570;-67
2020/12/08 00:27:39;;;;;;;40.90;28.87;;;4.50;99.90;;;4.79;83.77;99998.47;5075052;28;20379;-67
2020/12/08 00:30:10;;;;;;;42.87;28.07;;;4.60;99.90;;;4.13;83.52;99882.09;5073965;28;20402;-67
2020/12/08 00:32:39;;;;;;;41.33;26.63;;;4.70;99.90;;;4.44;83.37;99957.28;5075343;28;20067;-67
2020/12/08 00:35:07;;;;;;;39.63;27.27;;;4.60;99.90;;;4.47;82.81;99969.50;5075200;28;20537;-67
2020/12/08 00:37:35;;;;;;;41.67;27.77;;;4.60;99.90;;;4.55;83.24;100007.06;5075186;28;20075;-67
2020/12/08 00:40:04;;;;;;;41.50;28.33;;;4.50;99.90;;;4.33;83.53;100013.94;5090710;28;20072;-67
2020/12/08 00:42:32;;;;;;;40.57;27.30;;;4.30;99.90;;;4.22;84.35;99994.63;5075276;28;20253;-67
2020/12/08 00:44:59;;;;;;;40.77;28.40;;;4.20;99.90;;;4.20;84.54;100011.22;5074740;28;20033;-67
2020/12/08 00:47:27;;;;;;;41.77;27.83;;;4.10;99.90;;;4.42;84.64;100008.75;5074886;28;20051;-67
2020/12/08 00:49:55;;;;;;;40.43;27.53;;;4.30;99.90;;;4.63;84.10;100002.75;5075005;28;20086;-67
2020/12/08 00:52:23;;;;;;;42.33;28.57;;;4.50;99.90;;;4.69;83.20;100020.22;5090462;28;20075;-67
2020/12/08 00:55:07;;;;;;;42.07;27.40;;;4.70;99.90;;;4.52;83.32;99993.97;5090467;28;20052;-67
2020/12/08 00:57:35;;;;;;;44.33;28.53;;;4.60;99.90;;;4.62;83.44;100035.06;5073470;28;20051;-66
2020/12/08 01:00:07;;;;;;;43.57;28.40;;;4.60;99.90;;;4.36;83.91;100034.88;5073474;28;20084;-67
2020/12/08 01:02:38;;;;;;;42.00;27.53;;;4.40;99.90;;;3.61;84.56;99900.91;5073406;28;20494;-67
2020/12/08 01:05:11;;;;;;;43.47;28.07;;;4.30;99.90;;;4.21;84.59;100034.78;5073369;28;20475;-66
2020/12/08 01:07:39;;;;;;;45.10;28.93;;;4.20;99.90;;;4.18;84.85;100039.13;5072916;28;20045;-67
2020/12/08 01:10:09;;;;;;;41.70;28.40;;;4.10;99.90;;;4.26;84.89;100043.53;5072579;28;20040;-67
2020/12/08 01:12:39;;;;;;;43.30;28.77;;;4.20;99.90;;;4.15;85.08;100041.69;5073197;28;20395;-67
2020/12/08 01:15:09;;;;;;;48.03;30.67;;;4.10;99.90;;;4.29;85.09;100043.56;5073546;28;20044;-67
2020/12/08 01:17:38;;;;;;;45.13;30.00;;;4.20;99.90;;;4.08;85.51;100047.75;5089991;28;20509;-67
2020/12/08 01:20:06;;;;;;;51.60;32.57;;;4.10;99.90;;;4.05;86.21;100045.97;5073952;28;20049;-67
2020/12/08 01:22:35;;;;;;;48.70;31.98;;;4.00;99.90;;;4.04;85.99;100044.25;5073123;28;20044;-67
2020/12/08 01:25:03;;;;;;;49.60;32.73;;;4.00;99.90;;;3.99;86.50;100039.84;5072871;28;20409;-67
2020/12/08 01:27:34;;;;;;;56.85;33.92;;;4.00;99.90;;;4.16;86.29;100039.06;5072892;28;20040;-66
2020/12/08 01:30:06;;;;;;;58.75;34.28;;;4.10;99.90;;;4.17;86.17;100042.56;5073976;28;20525;-66
2020/12/08 01:32:37;;;;;;;64.37;36.60;;;4.10;99.90;;;4.21;86.14;100040.00;5072595;28;20048;-67
2020/12/08 01:35:05;;;;;;;63.60;38.07;;;4.20;99.90;;;4.07;86.84;100048.59;5073030;28;20079;-66
2020/12/08 01:37:34;;;;;;;73.47;42.50;;;4.10;99.90;;;4.02;86.87;100043.34;5051279;28;20060;-67
2020/12/08 01:40:03;;;;;;;72.87;42.77;;;4.00;99.90;;;4.04;87.13;100045.97;5034717;28;20057;-67
2020/12/08 01:42:32;;;;;;;80.30;47.20;;;4.00;99.90;;;4.10;87.38;100051.25;5051292;28;20102;-67
2020/12/08 01:45:00;;;;;;;72.33;43.60;;;4.00;99.90;;;4.28;86.62;100047.03;5034659;28;20057;-66
2020/12/08 01:47:30;;;;;;;74.10;44.90;;;4.20;99.90;;;4.33;86.39;100053.19;5034520;28;20045;-67
2020/12/08 01:49:59;;;;;;;78.30;45.22;;;4.20;99.90;;;4.31;86.93;100048.81;5034592;28;20091;-67
2020/12/08 01:52:28;;;;;;;71.90;44.37;;;4.20;99.90;;;4.24;86.34;100016.47;5034464;28;20053;-66
2020/12/08 01:55:03;;;;;;;69.57;42.90;;;4.30;99.90;;;4.62;85.91;100065.59;5051110;28;20053;-66
2020/12/08 01:57:34;;;;;;;73.47;43.43;;;4.40;99.90;;;4.67;85.69;100063.84;5051018;28;20140;-66
2020/12/08 02:00:06;;;;;;;73.23;44.20;;;4.50;99.90;;;4.65;85.15;100063.84;5034377;28;20175;-67
2020/12/08 02:02:42;;;;;;;73.70;44.10;;;4.50;99.90;;;4.89;84.79;100071.00;5051076;28;20056;-66
2020/12/08 02:05:21;;;;;;;73.95;44.35;;;4.70;99.90;;;4.96;84.32;100067.53;5051156;28;20045;-66
2020/12/08 02:07:50;;;;;;;74.33;46.47;;;4.80;99.90;;;4.96;83.49;100062.28;5038487;28;20045;-67
2020/12/08 02:10:18;;;;;;;70.30;44.93;;;4.90;99.90;;;4.97;83.21;100066.66;5073261;28;20440;-67
2020/12/08 02:12:46;;;;;;;71.80;43.07;;;4.90;99.90;;;5.05;83.32;100078.06;5072013;28;20052;-67
2020/12/08 02:15:15;;;;;;;;;;;5.00;99.90;;;5.10;83.01;100078.94;5072538;28;20389;-66
2020/12/08 02:17:46;;;;;;;73.88;44.28;;;5.00;99.90;;;5.27;83.04;100079.91;5071918;28;19920;-66
2020/12/08 02:20:15;;;;;;;79.37;45.67;;;5.10;99.90;;;5.33;82.54;100077.31;5071424;28;20056;-67
2020/12/08 02:22:43;;;;;;;77.40;45.13;;;5.30;99.90;;;5.44;82.19;100065.09;5071958;28;20140;-67
2020/12/08 02:25:12;;;;;;;77.07;44.97;;;5.40;99.90;;;5.52;81.61;100073.00;5071549;28;20494;-67
2020/12/08 02:27:40;;;;;;;75.47;46.27;;;5.40;99.90;;;5.21;81.52;100045.78;5071929;28;20798;-67
2020/12/08 02:30:11;;;;;;;78.17;46.70;;;5.40;99.90;;;5.52;81.83;100066.00;5071801;28;20052;-67
2020/12/08 02:32:39;;;;;;;79.67;48.40;;;5.50;99.90;;;5.18;81.20;100025.72;5071683;28;20051;-67
2020/12/08 02:35:08;;;;;;;84.93;49.03;;;5.50;99.90;;;5.47;81.09;100073.00;5071595;28;20036;-66
2020/12/08 02:37:38;;;;;;;79.73;47.57;;;5.40;99.90;;;5.49;81.37;100063.38;5071603;28;20486;-66
2020/12/08 02:40:07;;;;;;;79.53;48.63;;;5.50;99.90;;;5.65;81.17;100069.53;5071645;28;20052;-67
2020/12/08 02:42:38;;;;;;;78.80;47.67;;;5.60;99.90;;;5.65;80.98;100059.94;5071586;28;20052;-67
2020/12/08 02:45:06;;;;;;;80.50;48.57;;;5.60;99.90;;;5.71;80.69;100043.34;5072676;28;20060;-67
2020/12/08 02:47:34;;;;;;;80.43;47.80;;;5.70;99.90;;;5.79;80.62;100068.69;5088198;28;20511;-67
2020/12/08 02:50:03;;;;;;;78.17;47.50;;;5.70;99.90;;;4.36;80.05;99815.03;5072740;28;20517;-66
2020/12/08 02:52:33;;;;;;;76.07;48.00;;;5.80;99.90;;;5.86;80.09;100067.00;5071053;28;20055;-66
2020/12/08 02:55:02;;;;;;;78.27;48.30;;;5.80;99.90;;;5.72;80.41;100074.81;5088206;28;20045;-66
2020/12/08 02:57:34;;;;;;;75.33;47.07;;;5.70;99.90;;;5.89;80.40;100073.13;5071289;28;20044;-67
2020/12/08 03:00:04;;;;;;;80.07;47.40;;;5.80;99.90;;;5.87;80.30;100072.25;5088147;28;20049;-67
2020/12/08 03:02:32;;;;;;;78.37;47.47;;;5.80;99.90;;;5.93;79.62;100050.38;5072849;28;20055;-66
2020/12/08 03:05:00;;;;;;;75.63;47.73;;;5.90;99.90;;;6.04;79.71;100057.38;5071194;28;20040;-66
2020/12/08 03:07:29;;;;;;;81.47;50.27;;;5.90;99.90;;;6.03;79.47;100053.03;5070798;28;20059;-67
2020/12/08 03:09:58;;;;;;;76.80;46.47;;;6.00;99.90;;;6.10;79.27;100062.63;5071117;28;20441;-67
2020/12/08 03:12:27;;;;;;;76.57;48.33;;;6.00;99.90;;;6.17;78.98;100056.53;5071300;28;20051;-66
2020/12/08 03:14:57;;;;;;;72.70;47.38;;;6.10;99.90;;;6.04;78.81;100027.66;5087947;28;20453;-66
2020/12/08 03:17:35;;;;;;;80.90;48.83;;;6.10;99.90;;;6.12;78.52;100062.63;5071188;28;20494;-67
2020/12/08 03:20:04;;;;;;;73.27;45.90;;;6.10;99.90;;;6.05;78.47;100067.03;5070817;28;20137;-67
2020/12/08 03:22:35;;;;;;;79.53;46.93;;;6.10;99.90;;;5.76;78.99;100060.81;5088053;28;20064;-67
2020/12/08 03:25:06;;;;;;;;;;;5.80;99.90;;;5.55;79.18;100052.03;5071707;28;20113;-67
2020/12/08 03:27:36;;;;;;;78.10;47.00;;;5.70;99.90;;;5.71;79.47;100062.53;5071465;28;20758;-67
2020/12/08 03:30:06;;;;;;;84.60;48.60;;;5.70;99.90;;;5.23;79.99;100041.44;5071218;28;20044;-67
2020/12/08 03:32:35;;;;;;;79.13;48.33;;;5.40;99.90;;;5.33;80.01;100035.34;5070627;28;20045;-67
2020/12/08 03:35:07;;;;;;;81.17;47.77;;;5.40;99.90;;;5.40;80.06;100052.88;5070917;28;20097;-67
2020/12/08 03:37:34;;;;;;;81.73;48.77;;;5.40;99.90;;;5.17;81.00;100046.66;5072406;28;20055;-67
2020/12/08 03:40:07;;;;;;;81.07;48.87;;;5.10;99.90;;;5.35;80.86;100055.47;5087880;28;20046;-67
2020/12/08 03:42:35;;;;;;;80.47;48.07;;;5.30;99.90;;;5.30;80.63;100054.56;5072165;28;20037;-67
2020/12/08 03:45:04;;;;;;;81.53;49.05;;;5.30;99.90;;;5.16;81.14;100052.78;5071114;28;20041;-66
2020/12/08 03:47:50;;;;;;;79.37;49.00;;;5.20;99.90;;;4.91;81.17;100006.38;5087893;28;20045;-66
2020/12/08 03:50:22;;;;;;;80.67;48.23;;;5.10;99.90;;;5.45;81.42;100065.13;5087886;28;20052;-66
2020/12/08 03:52:51;;;;;;;79.77;48.13;;;5.30;99.90;;;5.37;80.88;100037.13;5071030;28;20060;-67
2020/12/08 03:55:19;;;;;;;81.80;48.83;;;5.40;99.90;;;5.32;80.64;100058.06;5072170;28;20119;-66
2020/12/08 03:57:47;;;;;;;84.57;48.83;;;5.40;99.90;;;5.29;80.94;100071.19;5087756;28;20402;-67
2020/12/08 04:00:17;;;;;;;78.23;47.37;;;5.30;99.90;;;5.53;81.12;100075.63;5070976;28;20127;-67
2020/12/08 04:02:49;;;;;;;75.40;47.17;;;5.40;99.90;;;5.63;80.98;100074.78;5070959;28;20049;-67
2020/12/08 04:05:21;;;;;;;76.47;46.63;;;5.50;99.90;;;5.62;80.52;100065.16;5070941;28;20052;-66
2020/12/08 04:07:48;;;;;;;79.33;49.00;;;5.60;99.90;;;5.70;80.27;100073.94;5070638;28;20068;-67
2020/12/08 04:10:18;;;;;;;74.40;47.87;;;5.60;99.90;;;5.79;80.51;100070.47;5070643;28;20059;-67
2020/12/08 04:12:48;;;;;;;76.77;45.97;;;5.70;99.90;;;5.74;79.92;100075.69;5070588;28;20634;-66
2020/12/08 04:15:15;;;;;;;79.70;46.87;;;5.70;99.90;;;5.71;80.07;100070.41;5070642;28;20048;-67
2020/12/08 04:17:46;;;;;;;72.97;45.27;;;5.70;99.90;;;5.79;79.82;100076.56;5070487;28;20497;-67
2020/12/08 04:20:14;;;;;;;77.07;47.93;;;5.70;99.90;;;5.70;80.12;100071.31;5071311;28;20458;-66
2020/12/08 04:22:41;;;;;;;76.70;46.17;;;5.70;99.90;;;5.75;79.98;100071.31;5070594;28;20040;-67
2020/12/08 04:25:12;;;;;;;74.43;46.37;;;5.70;99.90;;;5.73;79.79;100073.91;5087586;28;20056;-66
2020/12/08 04:27:40;;;;;;;75.40;46.97;;;5.70;99.90;;;5.69;79.53;100085.28;5070638;28;20486;-67
2020/12/08 04:30:11;;;;;;;73.87;46.90;;;5.70;99.90;;;5.53;80.07;100086.97;5070284;28;20037;-66
2020/12/08 04:32:42;;;;;;;74.63;45.53;;;5.60;99.90;;;5.64;80.35;100086.13;5070447;28;20309;-66
2020/12/08 04:35:10;;;;;;;79.77;47.90;;;5.60;99.90;;;5.48;79.82;100093.06;5071679;28;20547;-67
2020/12/08 04:37:38;;;;;;;75.23;46.77;;;5.60;99.90;;;5.04;81.09;100074.56;5071420;28;20097;-66
2020/12/08 04:40:05;;;;;;;79.93;49.00;;;5.20;99.90;;;4.94;81.36;100092.84;5071584;28;20044;-66
2020/12/08 04:42:33;;;;;;;77.27;48.60;;;5.00;99.90;;;4.85;82.29;100095.41;5072159;28;20052;-66
2020/12/08 04:45:01;;;;;;;81.83;49.47;;;4.90;99.90;;;4.77;82.73;100095.38;5074856;28;20043;-67
2020/12/08 04:47:31;;;;;;;77.30;47.60;;;4.80;99.90;;;5.00;82.87;100093.75;5074705;28;20045;-66
2020/12/08 04:50:00;;;;;;;78.70;48.27;;;4.90;99.90;;;5.09;82.34;100093.78;5075167;28;20045;-66
2020/12/08 04:52:27;;;;;;;79.83;47.70;;;5.00;99.90;;;4.97;82.00;100091.13;5074807;28;20049;-67
2020/12/08 04:54:54;;;;;;;82.17;49.70;;;5.10;99.90;;;4.97;82.61;100092.88;5074977;28;20044;-67
2020/12/08 04:57:24;;;;;;;84.60;50.17;;;5.00;99.90;;;4.76;83.04;100090.13;5075259;28;20140;-66
2020/12/08 05:00:03;;;;;;;85.87;51.77;;;4.80;99.90;;;4.76;83.26;100095.38;5074868;28;20044;-67
2020/12/08 05:02:32;;;;;;;85.63;49.53;;;4.80;99.90;;;4.89;83.04;100089.31;5075002;28;20050;-67
2020/12/08 05:04:59;;;;;;;82.90;51.30;;;4.80;99.90;;;4.89;83.47;100094.56;5074813;28;20071;-66
2020/12/08 05:07:28;;;;;;;82.03;49.50;;;4.90;99.90;;;4.93;83.65;100102.47;5074631;28;20058;-69
2020/12/08 05:09:56;;;;;;;84.80;51.40;;;4.90;99.90;;;4.97;83.04;100096.38;5074468;28;20557;-70
2020/12/08 05:12:25;;;;;;;81.90;50.53;;;5.00;99.90;;;5.11;82.70;100180.31;5074277;28;20110;-70
2020/12/08 05:14:52;;;;;;;82.07;48.53;;;5.00;99.90;;;5.10;82.96;100099.91;5090212;28;20452;-70
2020/12/08 05:17:22;;;;;;;80.57;49.40;;;5.10;99.90;;;5.15;82.57;100103.47;5074553;28;20041;-70
2020/12/08 05:20:03;;;;;;;78.60;47.87;;;5.10;99.90;;;5.15;82.53;100103.47;5074151;28;20057;-71
2020/12/08 05:22:31;;;;;;;77.70;48.27;;;5.10;99.90;;;5.29;82.44;100104.38;5090067;28;20140;-71
2020/12/08 05:25:10;;;;;;;76.77;46.33;;;5.20;99.90;;;5.30;82.25;100085.16;5074091;28;20501;-69
2020/12/08 05:27:38;;;;;;;71.53;46.10;;;5.30;99.90;;;5.48;81.99;100106.19;5074317;28;20469;-69
2020/12/08 05:30:09;;;;;;;80.63;48.43;;;5.40;99.90;;;5.55;81.65;100107.09;5074331;28;20064;-70
2020/12/08 05:32:37;;;;;;;77.87;47.63;;;5.50;99.90;;;5.48;81.38;100108.81;5073972;28;20056;-69
2020/12/08 05:35:09;;;;;;;74.67;45.63;;;5.50;99.90;;;5.15;81.51;100120.03;5074188;28;20420;-70
2020/12/08 05:37:38;;;;;;;79.97;46.43;;;5.30;99.90;;;5.08;82.11;100117.38;5074194;28;20106;-70
2020/12/08 05:40:08;;;;;;;77.63;46.67;;;5.10;99.90;;;4.79;82.54;100125.06;5074079;28;20040;-69
2020/12/08 05:42:39;;;;;;;82.03;47.05;;;4.90;99.90;;;4.85;82.92;100125.13;5074119;28;20062;-68
2020/12/08 05:45:08;;;;;;;82.15;48.88;;;4.80;99.90;;;4.71;83.45;100134.63;5074015;28;20060;-68
2020/12/08 05:47:49;;;;;;;78.57;49.43;;;4.70;99.90;;;4.65;83.77;100136.28;5073897;28;20146;-69
2020/12/08 05:50:19;;;;;;;80.20;49.53;;;4.70;99.90;;;4.83;84.00;100141.69;5073941;28;20043;-69
2020/12/08 05:52:49;;;;;;;83.68;50.53;;;4.80;99.90;;;4.86;83.18;100152.19;5073613;28;20041;-69
2020/12/08 05:55:18;;;;;;;84.07;49.95;;;4.80;99.90;;;4.47;83.38;100080.31;5073593;28;20044;-69
2020/12/08 05:57:46;;;;;;;77.70;48.67;;;4.80;99.90;;;4.55;84.31;100145.81;5073714;28;20043;-69
2020/12/08 06:00:25;;;;;;;83.80;50.17;;;4.60;99.90;;;4.24;84.36;100156.94;5073376;28;20037;-69
2020/12/08 06:02:54;;;;;;;82.23;49.20;;;4.40;99.90;;;4.12;85.06;100151.56;5073649;28;20052;-69
2020/12/08 06:05:28;;;;;;;77.70;47.60;;;4.20;99.90;;;4.15;85.10;100154.19;5073579;28;20375;-69
2020/12/08 06:07:55;;;;;;;76.70;47.37;;;4.20;99.90;;;4.26;85.75;100148.22;5073241;28;20402;-69
2020/12/08 06:10:23;;;;;;;84.40;50.67;;;4.20;99.90;;;4.14;85.02;100123.69;5073386;28;20041;-69
2020/12/08 06:12:58;;;;;;;77.63;47.47;;;4.30;99.90;;;4.18;84.80;100117.63;5073077;28;20047;-69
2020/12/08 06:15:36;;;;;;;87.20;50.23;;;4.40;99.90;;;4.06;84.94;100136.69;5073341;28;20044;-69
2020/12/08 06:18:04;;;;;;;82.50;48.70;;;4.30;99.90;;;4.12;85.61;100155.03;5073041;28;20101;-69
2020/12/08 06:20:32;;;;;;;83.10;48.00;;;4.20;99.90;;;4.25;85.05;100151.69;5073283;28;20057;-69
2020/12/08 06:23:00;;;;;;;77.47;46.33;;;4.30;99.90;;;3.80;84.97;100040.50;5073381;28;20036;-69
2020/12/08 06:25:27;;;;;;;73.60;45.07;;;4.40;99.90;;;4.47;84.39;100114.34;5072851;28;20506;-69
2020/12/08 06:27:57;;;;;;;72.43;45.57;;;4.60;99.90;;;4.77;83.62;100158.22;5072759;28;20407;-69
2020/12/08 06:30:25;;;;;;;74.95;43.38;;;4.70;99.90;;;4.90;83.46;100159.19;5073152;28;20094;-69
2020/12/08 06:32:57;;;;;;;70.03;44.73;;;4.80;99.90;;;4.91;83.15;100146.13;5073067;28;20083;-69
2020/12/08 06:35:33;;;;;;;65.90;43.67;;;4.90;99.90;;;5.07;82.53;100165.44;5071694;28;20060;-69
2020/12/08 06:38:15;;;;;;;66.30;42.80;;;5.00;99.90;;;5.09;82.42;100150.59;5072836;28;20144;-69
2020/12/08 06:40:51;;;;;;;70.70;42.23;;;5.10;99.90;;;4.62;81.74;100070.81;5072646;28;20052;-68
2020/12/08 06:43:19;;;;;;;67.97;43.07;;;5.10;99.90;;;5.07;81.59;100139.22;5072734;28;20402;-69
2020/12/08 06:45:47;;;;;;;66.17;42.20;;;5.10;99.90;;;5.24;81.27;100171.66;5072447;28;20072;-69
2020/12/08 06:48:18;;;;;;;69.03;42.57;;;5.20;99.90;;;5.29;81.20;100162.03;5072274;28;20036;-69
2020/12/08 06:50:47;;;;;;;66.57;43.60;;;5.20;99.90;;;4.81;80.64;100076.19;5072281;28;20041;-69
2020/12/08 06:53:16;;;;;;;68.67;40.60;;;5.30;99.90;;;5.15;80.31;100137.53;5071186;28;20098;-69
2020/12/08 06:55:46;;;;;;;67.40;41.67;;;5.30;99.90;;;5.40;80.46;100174.34;5072238;28;20062;-69
2020/12/08 06:58:14;;;;;;;;;;;5.30;99.90;;;5.41;79.86;100181.34;5072707;28;20045;-69
2020/12/08 07:00:44;;;;;;;64.67;40.67;;;5.40;99.90;;;5.43;80.11;100169.13;5072227;28;19920;-69
2020/12/08 07:03:13;;;;;;;71.53;43.25;;;5.40;99.90;;;5.46;80.02;100168.25;5072481;28;20041;-69
2020/12/08 07:05:40;;;;;;;67.10;41.87;;;5.40;99.90;;;5.49;79.77;100168.28;5071788;28;20075;-69
2020/12/08 07:08:10;;;;;;;67.37;41.37;;;5.40;99.90;;;5.49;79.46;100168.28;5071693;28;20044;-68
2020/12/08 07:10:39;;;;;;;66.80;39.77;;;5.40;99.90;;;5.53;79.39;100179.66;5072086;28;20082;-69
2020/12/08 07:13:12;;;;;;;59.97;38.23;;;5.40;99.90;;;5.46;79.20;100186.59;5072310;28;20383;-68
2020/12/08 07:15:40;;;;;;;61.17;38.93;;;5.40;99.90;;;5.25;79.37;100131.44;5072145;28;20049;-69
2020/12/08 07:18:10;;;;;;;55.97;37.17;;;5.50;99.90;;;5.53;79.29;100179.66;5072247;28;20098;-69
2020/12/08 07:20:40;;;;;;;57.93;36.93;;;5.50;99.90;;;5.48;79.16;100177.00;5072296;28;20052;-69
2020/12/08 07:23:11;;;;;;;63.17;39.60;;;5.50;99.90;;;5.55;79.08;100186.66;5072302;28;20440;-69
2020/12/08 07:25:39;;;;;;;57.03;36.53;;;5.50;99.90;;;5.60;79.22;100189.28;5071985;28;20124;-68
2020/12/08 07:28:08;;;;;;;55.03;34.23;;;5.50;99.90;;;5.44;79.29;100175.22;5072028;28;20045;-69
2020/12/08 07:30:36;;;;;;;53.53;35.20;;;5.50;99.90;;;5.56;79.17;100204.13;5072376;28;20048;-69
2020/12/08 07:33:11;;;;;;;55.60;35.67;;;5.50;99.90;;;5.38;79.33;100198.81;5071840;28;20089;-69
2020/12/08 07:35:43;;;;;;;56.23;35.60;;;5.40;99.90;;;5.30;79.38;100204.00;5072206;28;20041;-69
2020/12/08 07:38:11;;;;;;;60.13;36.53;;;5.30;99.90;;;4.74;80.58;100201.88;5072161;28;20052;-69
2020/12/08 07:40:41;;;;;;;60.43;38.60;;;5.00;99.90;;;4.56;82.12;100206.09;5071753;28;20049;-69
2020/12/08 07:43:10;;;;;;;68.90;40.63;;;4.60;99.90;;;4.32;82.23;100210.19;5071807;28;20493;-69
2020/12/08 07:45:43;;;;;;;69.00;42.23;;;4.40;99.90;;;4.00;83.36;100202.03;5071665;28;20087;-69
2020/12/08 07:48:17;;;;;;;67.23;42.17;;;4.20;99.90;;;3.67;84.54;100217.31;5071947;28;20045;-69
2020/12/08 07:50:44;;;;;;;73.97;44.00;;;3.80;99.90;;;3.36;86.50;100209.94;5071805;28;20127;-69
2020/12/08 07:53:15;;;;;;;72.70;42.53;;;3.50;99.90;;;3.73;86.48;100217.41;5071565;28;20439;-68
2020/12/08 07:55:44;;;;;;;;;;;3.70;99.90;;;3.66;86.70;100216.44;5072211;28;20044;-69
2020/12/08 07:58:12;;;;;;;75.07;42.70;;;3.60;99.90;;;3.55;86.35;100218.03;5071498;28;20412;-69
2020/12/08 08:00:40;;;;;;;64.53;40.60;;;3.60;99.90;;;3.64;87.03;100218.16;5071900;28;20401;-69
2020/12/08 08:03:08;;;;;;;63.27;39.53;;;3.60;99.90;;;3.80;86.37;100224.44;5071899;28;20048;-68
2020/12/08 08:05:35;;;;;;;63.77;38.80;;;3.70;99.90;;;3.97;86.52;100215.06;5071951;28;20040;-69
2020/12/08 08:08:03;;;;;;;64.90;40.47;;;3.90;99.90;;;3.87;85.62;100180.94;5071911;28;20127;-69
2020/12/08 08:10:31;;;;;;;62.23;37.47;;;4.00;99.90;;;4.23;85.22;100223.19;5071850;28;20110;-69
2020/12/08 08:12:58;;;;;;;60.13;36.87;;;4.20;99.90;;;3.81;85.07;100119.00;5071557;28;20048;-69
2020/12/08 08:15:26;;;;;;;58.93;37.27;;;4.30;99.90;;;4.46;84.54;100230.44;5070433;28;20532;-69
2020/12/08 08:17:53;;;;;;;59.63;34.73;;;4.40;99.90;;;3.97;84.57;100228.13;5088491;28;20579;-69
2020/12/08 08:20:20;;;;;;;53.73;33.60;;;4.10;99.90;;;3.62;85.60;100239.91;5075564;28;20048;-69
2020/12/08 08:22:48;;;;;;;52.93;34.17;;;3.80;99.90;;;3.48;86.42;100246.69;5075501;28;20424;-68
2020/12/08 08:25:15;;;;;;;50.50;34.37;;;3.50;99.90;;;3.67;86.70;100253.94;5075492;28;20075;-64
2020/12/08 08:27:44;;;;;;;56.23;35.47;;;3.60;99.90;;;3.60;86.12;100252.94;5075023;28;20059;-65
2020/12/08 08:30:11;;;;;;;53.07;35.17;;;3.70;99.90;;;3.46;87.36;100264.09;5075126;28;20559;-64
2020/12/08 08:32:38;;;;;;;61.80;34.60;;;3.50;99.90;;;3.40;88.31;100257.06;5074700;28;20448;-63
2020/12/08 08:35:06;;;;;;;99.97;55.97;;;3.40;99.90;;;3.45;88.01;100259.72;5075134;28;20036;-63
2020/12/08 08:37:34;;;;;;;61.50;37.93;;;3.40;99.90;;;3.44;87.58;100253.63;5074852;28;20076;-63
2020/12/08 08:40:01;;;;;;;56.03;33.50;;;3.50;99.90;;;3.45;87.30;100260.59;5075534;28;20040;-63
2020/12/08 08:42:30;;;;;;;50.10;32.60;;;3.40;99.90;;;3.68;86.92;100255.66;5075260;28;20036;-62
2020/12/08 08:44:59;;;;;;;50.40;33.90;;;3.60;99.90;;;3.98;86.68;100253.44;5074838;28;20060;-63
2020/12/08 08:47:26;;;;;;;50.87;33.43;;;3.90;99.90;;;4.20;85.62;100254.59;5075147;28;20135;-63
2020/12/08 08:49:53;;;;;;;48.40;32.00;;;4.10;99.90;;;4.14;85.04;100257.97;5074683;28;20098;-63
2020/12/08 08:52:21;;;;;;;52.27;33.70;;;4.20;99.90;;;4.33;84.93;100244.25;5074991;28;20068;-63
2020/12/08 08:54:48;;;;;;;43.90;30.90;;;4.40;99.90;;;4.48;84.04;100261.84;5074946;28;20032;-63
2020/12/08 08:57:16;;;;;;;50.03;31.87;;;4.40;99.90;;;4.38;83.61;100268.72;5074658;28;20044;-63
2020/12/08 08:59:45;;;;;;;48.47;32.47;;;4.50;99.90;;;4.51;83.40;100270.59;5074504;28;20045;-63
2020/12/08 09:02:14;;;;;;;47.88;31.13;;;4.60;99.90;;;4.45;82.72;100269.69;5074810;28;20044;-63
2020/12/08 09:04:52;;;;;;;45.67;31.23;;;4.50;99.90;;;4.76;82.72;100268.25;5074773;28;20045;-63
2020/12/08 09:07:20;;;;;;;46.63;30.87;;;4.70;99.90;;;4.78;82.20;100272.59;5074403;28;20041;-63
2020/12/08 09:09:47;;;;;;;43.93;30.13;;;4.80;99.90;;;4.67;82.19;100270.75;5073124;28;20513;-63
2020/12/08 09:12:15;;;;;;;47.50;31.37;;;4.70;99.90;;;4.93;81.75;100277.13;5074170;28;20072;-63
2020/12/08 09:14:42;;;;;;;44.63;29.70;;;4.80;99.90;;;4.93;81.89;100274.50;5074194;28;20074;-63
2020/12/08 09:17:10;;;;;;;45.30;29.50;;;4.90;99.90;;;5.17;81.12;100285.16;5072808;28;20048;-63
2020/12/08 09:19:38;;;;;;;42.23;28.57;;;5.10;99.90;;;5.31;80.72;100281.78;5072987;28;20048;-63
2020/12/08 09:22:06;;;;;;;42.27;29.13;;;5.30;99.90;;;5.49;80.63;100296.78;5074445;28;20048;-63
2020/12/08 09:24:33;;;;;;;44.07;29.33;;;5.40;99.90;;;5.66;80.30;100295.13;5074319;28;20059;-63
2020/12/08 09:27:03;;;;;;;41.23;27.80;;;5.60;99.90;;;5.79;79.60;100291.69;5074302;28;20036;-62
2020/12/08 09:29:31;;;;;;;41.83;29.07;;;5.70;99.90;;;5.73;79.01;100259.31;5073060;28;20040;-63
2020/12/08 09:31:58;;;;;;;42.63;29.20;;;5.90;99.90;;;5.91;78.22;100291.81;5073890;28;20041;-63
2020/12/08 09:34:27;;;;;;;54.07;33.60;;;5.90;99.90;;;5.81;78.03;100261.09;5073575;28;20363;-63
2020/12/08 09:36:57;;;;;;;49.23;31.27;;;6.00;99.90;;;6.02;77.57;100292.72;5073737;28;20067;-63
2020/12/08 09:39:25;;;;;;;92.70;46.65;;;6.00;99.90;;;5.88;77.47;100252.44;5089096;28;20059;-63
2020/12/08 09:41:52;;;;;;;55.40;34.50;;;6.10;99.90;;;6.13;76.98;100292.78;5073612;28;20055;-64
2020/12/08 09:44:21;;;;;;;44.10;29.90;;;6.20;99.90;;;6.27;76.85;100302.44;5073900;28;20072;-63
2020/12/08 09:46:48;;;;;;;36.73;27.47;;;6.30;99.90;;;6.08;76.25;100279.63;5073916;28;20101;-66
2020/12/08 09:49:16;;;;;;;38.40;27.43;;;6.20;99.90;;;6.19;76.03;100306.78;5073498;28;20522;-65
2020/12/08 09:51:43;;;;;;;41.17;28.43;;;6.20;99.90;;;5.54;77.01;100300.28;5073412;28;20506;-64
2020/12/08 09:54:12;;;;;;;44.10;28.63;;;5.70;99.90;;;5.29;78.31;100294.00;5073609;28;20044;-65
2020/12/08 09:56:39;;;;;;;38.83;28.83;;;5.40;99.90;;;5.60;78.42;100295.09;5073259;28;20517;-69
2020/12/08 09:59:07;;;;;;;40.80;28.37;;;5.50;99.90;;;5.47;77.83;100295.88;5073642;28;20051;-66
2020/12/08 10:01:34;;;;;;;44.57;29.57;;;5.50;99.90;;;5.50;78.33;100288.03;5073272;28;20032;-65
2020/12/08 10:04:02;;;;;;;38.70;28.53;;;5.40;99.90;;;5.16;78.51;100268.59;5073295;28;20055;-65
2020/12/08 10:06:29;;;;;;;40.90;29.73;;;5.30;99.90;;;5.39;78.39;100293.22;5073526;28;20049;-65
2020/12/08 10:08:57;;;;;;;41.97;28.83;;;5.40;99.90;;;5.66;78.39;100297.75;5073094;28;20120;-65
2020/12/08 10:11:26;;;;;;;37.63;28.13;;;5.50;99.90;;;5.75;77.88;100308.28;5073480;28;20052;-65
2020/12/08 10:13:54;;;;;;;42.53;30.70;;;5.70;99.90;;;5.58;77.73;100296.81;5073080;28;20049;-65
2020/12/08 10:16:25;;;;;;;46.33;30.83;;;5.60;99.90;;;5.38;77.92;100280.09;5072983;28;20135;-65
2020/12/08 10:18:53;;;;;;;43.42;30.17;;;5.50;99.90;;;5.65;78.47;100290.78;5073073;28;20102;-65
2020/12/08 10:21:22;;;;;;;46.90;30.10;;;5.60;99.90;;;5.97;78.13;100294.47;5073087;28;20398;-65
2020/12/08 10:23:51;;;;;;;43.40;30.47;;;5.80;99.90;;;6.03;77.65;100299.75;5072842;28;20041;-65